หน้าหลัก
METAR-TAF:

METAR-TAF

ท่าอากาศยาน :

Vilankulo, โมซัมบิก

ละติจูด: 22-00S, ลองจิจูด: 035-19E, ความสูง: 20 ม.

การสังเกตสภาพอากาศปัจจุบัน

รายงานได้ทำขึ้นเมื่อ 32 นาทีที่แล้ว ณ เวลา 07:00 UTC
ลม 6 นอตจากใต้/ตะวันออกเฉียงใต้
อุณหภูมิ 27°C
ความชื้น 66%
ความกดอากาศ 1017 hPa
ทัศนวิสัย 10 กม. หรือมากกว่า
มีเมฆน้อยที่ความสูง 2000 ฟุต

METAR: FQVL 200700Z 15006KT 9999 FEW020 27/20 Q1017

เวลา: 09:32 (07:32 UTC)

การพยากรณ์

รายงานได้ทำขึ้นเมื่อ 3 ชั่วโมงและ 32 นาทีที่แล้ว ณ เวลา 04:00 UTC
การพยากรณ์มีผลตั้งแต่วันที่ 20 ณ เวลา 06 UTC จนถึงวันที่ 21 ณ เวลา 06 UTC
ลม 8 นอตจากตะวันตกเฉียงใต้
ทัศนวิสัย 10 กม. หรือมากกว่า
มีเมฆกระจายเป็นบางส่วนที่ความสูง 2000 ฟุต
กำลังกลายเป็น
ตั้งแต่วันที่ 20 ณ เวลา 12 UTC จนถึงวันที่ 20 ณ เวลา 14 UTC
ลม 8 นอตจากตะวันออก/ตะวันออกเฉียงใต้

TAF: FQVL 200400Z 2006/2106 23008KT 9999 SCT020 TX30/2013Z TN21/2102Z BECMG 2012/2014 12008KT

สังเกตการณ์สภาพอากาศและพยากรณ์อากาศของสนามบินมากกว่า 4000 แห่ง (รายงาน METAR และ TAF).

สถานีที่ดูได้จะแสดงไว้ด้วยจุดสีเหลืองและสีแดงบนแผนที่.

เลื่อนเมาส์ไปเหนือจุดเพื่อดูชื่อสถานี.

แล้วคลิกเพื่อดูสังเกตการณ์และการพยากรณ์สภาพอากาศ.

ในการเปลี่ยนแผนที่: คลิกที่ปุ่มสีเขียวที่มีกากบาทสีดำเพื่อซูมเข้า; ที่ปุ่มสีเขียวที่มีขีดเพื่อซูมออก; หรือที่ลูกศรสีเขียวเพื่อไปยังแผนที่ที่อยู่ติดกัน.


METAR-TAF: